Jurbise, Belgium
Current Conditions -  °F | °C
As of 9:25 AM on Friday 28 Nov 2014 (Local Time) from EBCV Reporting Station
Few Clouds Few Clouds  
Wind Chill: 50°   Ceiling: Unl
Heat Index: 50°   Visibility: 6mi
Dew Point: 45°   Wind: 7mph
Humidity: 82%   Direction: 100°E
Pressure: 29.65"   Gusts: NA
Location:  50.53°N, 3.91°E
Report Text: EBCV 280825Z AUTO 10006KT 9999 FEW090/// 10/07 Q1004 BLU
Loading
Personal Weather Stations






























Interactive Weather Map New forecast layout! Learn more

10-Day Weather Forecast

Advertisements
Track Severe Weather on mobile